sensor_id;sensor_type;location;lat;lon;timestamp;pressure;altitude;pressure_sealevel;temperature;humidity
57791;BME280;43621;51.798;21.588;2023-02-11T00:00:07;101259.61;;;2.46;66.82
57791;BME280;43621;51.798;21.588;2023-02-11T00:04:30;101261.52;;;2.46;66.75
57791;BME280;43621;51.798;21.588;2023-02-11T00:08:31;101254.52;;;2.44;66.81
57791;BME280;43621;51.798;21.588;2023-02-11T00:12:35;101253.55;;;2.42;66.86
57791;BME280;43621;51.798;21.588;2023-02-11T00:16:37;101254.04;;;2.38;66.74
57791;BME280;43621;51.798;21.588;2023-02-11T00:20:39;101254.38;;;2.34;66.75
57791;BME280;43621;51.798;21.588;2023-02-11T00:24:41;101256.29;;;2.34;66.69
57791;BME280;43621;51.798;21.588;2023-02-11T00:28:44;101247.83;;;2.39;66.84
57791;BME280;43621;51.798;21.588;2023-02-11T00:32:47;101240.27;;;2.42;66.92
57791;BME280;43621;51.798;21.588;2023-02-11T00:36:48;101236.38;;;2.45;66.95
57791;BME280;43621;51.798;21.588;2023-02-11T00:40:51;101225.89;;;2.44;67.12
57791;BME280;43621;51.798;21.588;2023-02-11T00:44:52;101228.61;;;2.41;67.02
57791;BME280;43621;51.798;21.588;2023-02-11T00:48:54;101227.17;;;2.38;66.95
57791;BME280;43621;51.798;21.588;2023-02-11T00:52:58;101222.20;;;2.33;66.99
57791;BME280;43621;51.798;21.588;2023-02-11T00:57:00;101208.43;;;2.33;67.11
57791;BME280;43621;51.798;21.588;2023-02-11T01:01:03;101193.45;;;2.37;67.20
57791;BME280;43621;51.798;21.588;2023-02-11T01:05:05;101181.77;;;2.40;67.10
57791;BME280;43621;51.798;21.588;2023-02-11T01:09:07;101176.35;;;2.42;67.12
57791;BME280;43621;51.798;21.588;2023-02-11T01:13:10;101165.60;;;2.40;67.15
57791;BME280;43621;51.798;21.588;2023-02-11T01:17:12;101165.54;;;2.32;67.11
57791;BME280;43621;51.798;21.588;2023-02-11T01:25:36;101163.20;;;2.26;67.12
57791;BME280;43621;51.798;21.588;2023-02-11T01:29:38;101157.78;;;2.28;67.23
57791;BME280;43621;51.798;21.588;2023-02-11T01:33:40;101143.02;;;2.35;67.17
57791;BME280;43621;51.798;21.588;2023-02-11T01:37:42;101136.48;;;2.39;67.04
57791;BME280;43621;51.798;21.588;2023-02-11T01:41:44;101122.90;;;2.39;66.97
57791;BME280;43621;51.798;21.588;2023-02-11T01:49:55;101088.73;;;2.31;66.89
57791;BME280;43621;51.798;21.588;2023-02-11T01:53:58;101074.36;;;2.29;66.93
57791;BME280;43621;51.798;21.588;2023-02-11T01:58:20;101062.83;;;2.24;66.77
57791;BME280;43621;51.798;21.588;2023-02-11T02:02:28;101049.52;;;2.25;66.74
57791;BME280;43621;51.798;21.588;2023-02-11T02:06:48;101040.09;;;2.29;66.69
57791;BME280;43621;51.798;21.588;2023-02-11T02:10:52;101035.11;;;2.32;66.70
57791;BME280;43621;51.798;21.588;2023-02-11T02:27:54;101016.23;;;2.26;66.75
57791;BME280;43621;51.798;21.588;2023-02-11T02:36:59;101019.27;;;2.19;66.75
57791;BME280;43621;51.798;21.588;2023-02-11T02:41:03;101007.96;;;2.22;66.64
57791;BME280;43621;51.798;21.588;2023-02-11T02:45:08;100985.15;;;2.28;66.64
57791;BME280;43621;51.798;21.588;2023-02-11T02:49:12;100969.95;;;2.33;66.61
57791;BME280;43621;51.798;21.588;2023-02-11T02:53:32;100969.55;;;2.35;66.67
57791;BME280;43621;51.798;21.588;2023-02-11T03:06:44;100946.29;;;2.26;66.50
57791;BME280;43621;51.798;21.588;2023-02-11T03:10:51;100949.39;;;2.21;66.47
57791;BME280;43621;51.798;21.588;2023-02-11T03:14:54;100949.83;;;2.19;66.52
57791;BME280;43621;51.798;21.588;2023-02-11T03:18:59;100962.98;;;2.22;66.43
57791;BME280;43621;51.798;21.588;2023-02-11T03:23:13;100960.80;;;2.29;66.56
57791;BME280;43621;51.798;21.588;2023-02-11T03:27:29;100947.01;;;2.34;66.51
57791;BME280;43621;51.798;21.588;2023-02-11T03:31:54;100941.06;;;2.36;66.46
57791;BME280;43621;51.798;21.588;2023-02-11T03:36:12;100938.61;;;2.37;66.39
57791;BME280;43621;51.798;21.588;2023-02-11T03:40:20;100936.39;;;2.32;66.27
57791;BME280;43621;51.798;21.588;2023-02-11T03:44:26;100925.01;;;2.28;66.18
57791;BME280;43621;51.798;21.588;2023-02-11T03:48:33;100918.88;;;2.27;66.20
57791;BME280;43621;51.798;21.588;2023-02-11T03:52:37;100911.52;;;2.29;66.19
57791;BME280;43621;51.798;21.588;2023-02-11T03:56:47;100898.23;;;2.34;66.19
57791;BME280;43621;51.798;21.588;2023-02-11T04:00:50;100885.70;;;2.37;66.16
57791;BME280;43621;51.798;21.588;2023-02-11T04:04:52;100882.14;;;2.36;66.09
57791;BME280;43621;51.798;21.588;2023-02-11T04:08:54;100879.20;;;2.32;66.02
57791;BME280;43621;51.798;21.588;2023-02-11T04:12:56;100871.09;;;2.28;66.05
57791;BME280;43621;51.798;21.588;2023-02-11T04:16:58;100852.65;;;2.24;65.92
57791;BME280;43621;51.798;21.588;2023-02-11T04:21:00;100834.73;;;2.20;65.86
57791;BME280;43621;51.798;21.588;2023-02-11T04:25:03;100825.09;;;2.16;65.78
57791;BME280;43621;51.798;21.588;2023-02-11T04:29:05;100817.06;;;2.15;65.85
57791;BME280;43621;51.798;21.588;2023-02-11T04:33:07;100799.52;;;2.14;65.88
57791;BME280;43621;51.798;21.588;2023-02-11T04:37:09;100792.77;;;2.11;65.90
57791;BME280;43621;51.798;21.588;2023-02-11T04:41:11;100789.61;;;2.08;65.88
57791;BME280;43621;51.798;21.588;2023-02-11T04:45:13;100787.50;;;2.05;65.87
57791;BME280;43621;51.798;21.588;2023-02-11T04:49:15;100770.07;;;2.02;65.85
57791;BME280;43621;51.798;21.588;2023-02-11T04:53:17;100766.68;;;1.97;65.73
57791;BME280;43621;51.798;21.588;2023-02-11T04:57:19;100767.67;;;1.94;65.81
57791;BME280;43621;51.798;21.588;2023-02-11T05:01:21;100762.10;;;1.96;65.86
57791;BME280;43621;51.798;21.588;2023-02-11T05:05:23;100752.55;;;2.02;65.86
57791;BME280;43621;51.798;21.588;2023-02-11T05:09:25;100753.16;;;2.11;65.95
57791;BME280;43621;51.798;21.588;2023-02-11T05:13:28;100746.52;;;2.17;65.94
57791;BME280;43621;51.798;21.588;2023-02-11T05:17:30;100732.92;;;2.17;65.91
57791;BME280;43621;51.798;21.588;2023-02-11T05:21:32;100727.82;;;2.15;65.79
57791;BME280;43621;51.798;21.588;2023-02-11T05:25:34;100714.15;;;2.13;65.72
57791;BME280;43621;51.798;21.588;2023-02-11T05:29:36;100699.63;;;2.07;65.51
57791;BME280;43621;51.798;21.588;2023-02-11T05:33:39;100694.70;;;1.94;65.42
57791;BME280;43621;51.798;21.588;2023-02-11T05:37:41;100690.48;;;1.80;65.47
57791;BME280;43621;51.798;21.588;2023-02-11T05:41:43;100684.19;;;1.71;65.47
57791;BME280;43621;51.798;21.588;2023-02-11T05:45:45;100676.30;;;1.66;65.62
57791;BME280;43621;51.798;21.588;2023-02-11T05:49:47;100672.88;;;1.70;65.73
57791;BME280;43621;51.798;21.588;2023-02-11T05:53:48;100669.05;;;1.78;65.92
57791;BME280;43621;51.798;21.588;2023-02-11T05:57:50;100662.02;;;1.85;65.93
57791;BME280;43621;51.798;21.588;2023-02-11T06:01:52;100662.08;;;1.88;65.80
57791;BME280;43621;51.798;21.588;2023-02-11T06:05:54;100667.58;;;1.88;65.63
57791;BME280;43621;51.798;21.588;2023-02-11T06:09:56;100662.05;;;1.88;65.69
57791;BME280;43621;51.798;21.588;2023-02-11T06:13:58;100658.64;;;1.91;65.58
57791;BME280;43621;51.798;21.588;2023-02-11T06:18:00;100655.40;;;1.98;65.53
57791;BME280;43621;51.798;21.588;2023-02-11T06:22:02;100649.50;;;2.11;65.53
57791;BME280;43621;51.798;21.588;2023-02-11T06:26:05;100640.04;;;2.25;65.45
57791;BME280;43621;51.798;21.588;2023-02-11T06:30:09;100625.29;;;2.39;65.25
57791;BME280;43621;51.798;21.588;2023-02-11T06:34:11;100620.02;;;2.51;65.08
57791;BME280;43621;51.798;21.588;2023-02-11T06:38:13;100614.68;;;2.62;64.81
57791;BME280;43621;51.798;21.588;2023-02-11T06:42:14;100613.55;;;2.68;64.52
57791;BME280;43621;51.798;21.588;2023-02-11T06:46:16;100606.18;;;2.74;64.21
57791;BME280;43621;51.798;21.588;2023-02-11T06:50:18;100603.64;;;2.94;64.04
57791;BME280;43621;51.798;21.588;2023-02-11T06:54:20;100595.08;;;3.13;63.69
57791;BME280;43621;51.798;21.588;2023-02-11T06:58:22;100601.95;;;3.27;63.36
57791;BME280;43621;51.798;21.588;2023-02-11T07:02:24;100600.32;;;3.22;62.97
57791;BME280;43621;51.798;21.588;2023-02-11T07:06:26;100598.38;;;3.12;62.87
57791;BME280;43621;51.798;21.588;2023-02-11T07:10:28;100597.56;;;3.05;62.73
57791;BME280;43621;51.798;21.588;2023-02-11T07:14:30;100588.00;;;3.00;62.57
57791;BME280;43621;51.798;21.588;2023-02-11T07:18:32;100571.99;;;2.96;62.67
57791;BME280;43621;51.798;21.588;2023-02-11T07:22:34;100561.31;;;2.99;62.55
57791;BME280;43621;51.798;21.588;2023-02-11T07:26:36;100559.11;;;3.12;62.53
57791;BME280;43621;51.798;21.588;2023-02-11T07:30:38;100557.13;;;3.49;62.47
57791;BME280;43621;51.798;21.588;2023-02-11T07:34:40;100550.28;;;4.51;62.34
57791;BME280;43621;51.798;21.588;2023-02-11T07:38:43;100550.56;;;5.12;61.37
57791;BME280;43621;51.798;21.588;2023-02-11T07:42:44;100543.27;;;5.12;60.35
57791;BME280;43621;51.798;21.588;2023-02-11T07:46:46;100538.07;;;4.92;59.87
57791;BME280;43621;51.798;21.588;2023-02-11T07:50:49;100545.04;;;4.67;59.86
57791;BME280;43621;51.798;21.588;2023-02-11T07:54:51;100546.54;;;4.38;59.82
57791;BME280;43621;51.798;21.588;2023-02-11T07:58:54;100545.94;;;4.19;60.72
57791;BME280;43621;51.798;21.588;2023-02-11T08:02:57;100540.09;;;4.34;60.86
57791;BME280;43621;51.798;21.588;2023-02-11T08:06:59;100539.45;;;4.41;60.67
57791;BME280;43621;51.798;21.588;2023-02-11T08:11:08;100543.79;;;4.56;60.20
57791;BME280;43621;51.798;21.588;2023-02-11T08:15:10;100547.77;;;4.44;59.88
57791;BME280;43621;51.798;21.588;2023-02-11T08:19:14;100547.27;;;4.23;59.95
57791;BME280;43621;51.798;21.588;2023-02-11T08:23:16;100542.35;;;3.96;59.74
57791;BME280;43621;51.798;21.588;2023-02-11T08:27:18;100539.99;;;3.73;59.94
57791;BME280;43621;51.798;21.588;2023-02-11T08:31:25;100536.79;;;3.65;60.03
57791;BME280;43621;51.798;21.588;2023-02-11T08:35:27;100539.20;;;3.68;60.18
57791;BME280;43621;51.798;21.588;2023-02-11T08:39:29;100530.86;;;3.72;60.22
57791;BME280;43621;51.798;21.588;2023-02-11T08:43:31;100516.30;;;3.80;60.36
57791;BME280;43621;51.798;21.588;2023-02-11T08:47:34;100508.81;;;3.96;60.63
57791;BME280;43621;51.798;21.588;2023-02-11T08:51:35;100512.69;;;4.10;60.44
57791;BME280;43621;51.798;21.588;2023-02-11T08:55:37;100508.50;;;4.21;60.38
57791;BME280;43621;51.798;21.588;2023-02-11T08:59:39;100507.36;;;4.23;60.17
57791;BME280;43621;51.798;21.588;2023-02-11T09:03:41;100508.14;;;4.30;60.03
57791;BME280;43621;51.798;21.588;2023-02-11T09:07:43;100505.91;;;4.39;59.91
57791;BME280;43621;51.798;21.588;2023-02-11T09:11:45;100492.85;;;4.46;59.98
57791;BME280;43621;51.798;21.588;2023-02-11T09:15:48;100498.76;;;4.40;59.66
57791;BME280;43621;51.798;21.588;2023-02-11T09:19:50;100496.52;;;4.18;59.71
57791;BME280;43621;51.798;21.588;2023-02-11T09:23:52;100479.55;;;3.95;59.96
57791;BME280;43621;51.798;21.588;2023-02-11T09:27:54;100470.67;;;3.86;60.37
57791;BME280;43621;51.798;21.588;2023-02-11T09:31:56;100457.74;;;3.96;60.82
57791;BME280;43621;51.798;21.588;2023-02-11T09:36:05;100443.86;;;4.09;61.23
57791;BME280;43621;51.798;21.588;2023-02-11T09:40:08;100441.98;;;4.32;61.15
57791;BME280;43621;51.798;21.588;2023-02-11T09:44:20;100430.77;;;4.41;61.00
57791;BME280;43621;51.798;21.588;2023-02-11T09:48:23;100424.47;;;4.42;61.03
57791;BME280;43621;51.798;21.588;2023-02-11T09:56:27;100427.70;;;4.31;61.03
57791;BME280;43621;51.798;21.588;2023-02-11T10:01:03;100423.65;;;4.27;61.14
57791;BME280;43621;51.798;21.588;2023-02-11T10:09:44;100417.60;;;4.18;61.38
57791;BME280;43621;51.798;21.588;2023-02-11T10:26:38;100417.38;;;3.76;62.37
57791;BME280;43621;51.798;21.588;2023-02-11T10:30:48;100412.37;;;3.64;62.51
57791;BME280;43621;51.798;21.588;2023-02-11T10:34:57;100403.98;;;3.57;63.09
57791;BME280;43621;51.798;21.588;2023-02-11T10:43:15;100379.89;;;3.61;63.46
57791;BME280;43621;51.798;21.588;2023-02-11T10:47:21;100376.89;;;3.63;63.51
57791;BME280;43621;51.798;21.588;2023-02-11T10:51:27;100361.04;;;3.62;63.97
57791;BME280;43621;51.798;21.588;2023-02-11T10:55:29;100352.60;;;3.62;64.12
57791;BME280;43621;51.798;21.588;2023-02-11T10:59:36;100370.40;;;3.61;64.56
57791;BME280;43621;51.798;21.588;2023-02-11T11:03:49;100374.28;;;3.60;64.79
57791;BME280;43621;51.798;21.588;2023-02-11T11:08:06;100361.34;;;3.60;65.27
57791;BME280;43621;51.798;21.588;2023-02-11T11:16:51;100352.41;;;3.50;65.31
57791;BME280;43621;51.798;21.588;2023-02-11T11:21:02;100347.34;;;3.48;65.58
57791;BME280;43621;51.798;21.588;2023-02-11T11:25:27;100343.77;;;3.49;65.83
57791;BME280;43621;51.798;21.588;2023-02-11T11:33:33;100335.91;;;3.51;66.55
57791;BME280;43621;51.798;21.588;2023-02-11T11:37:37;100331.55;;;3.46;66.70
57791;BME280;43621;51.798;21.588;2023-02-11T11:41:48;100315.84;;;3.40;66.57
57791;BME280;43621;51.798;21.588;2023-02-11T11:45:58;100299.71;;;3.36;66.61
57791;BME280;43621;51.798;21.588;2023-02-11T11:54:24;100319.04;;;3.42;66.99
57791;BME280;43621;51.798;21.588;2023-02-11T11:58:29;100333.47;;;3.46;67.13
57791;BME280;43621;51.798;21.588;2023-02-11T12:02:42;100346.03;;;3.46;67.13
57791;BME280;43621;51.798;21.588;2023-02-11T12:36:52;100310.01;;;3.33;68.31
57791;BME280;43621;51.798;21.588;2023-02-11T12:46:08;100301.29;;;3.38;68.59
57791;BME280;43621;51.798;21.588;2023-02-11T12:50:29;100295.61;;;3.41;68.77
57791;BME280;43621;51.798;21.588;2023-02-11T12:54:57;100293.92;;;3.40;68.93
57791;BME280;43621;51.798;21.588;2023-02-11T12:59:04;100286.48;;;3.40;68.87
57791;BME280;43621;51.798;21.588;2023-02-11T13:07:16;100286.31;;;3.49;69.06
57791;BME280;43621;51.798;21.588;2023-02-11T13:11:23;100279.36;;;3.50;69.16
57791;BME280;43621;51.798;21.588;2023-02-11T13:15:27;100282.14;;;3.47;69.20
57791;BME280;43621;51.798;21.588;2023-02-11T13:19:52;100282.59;;;3.42;69.20
57791;BME280;43621;51.798;21.588;2023-02-11T13:28:22;100280.53;;;3.39;69.44
57791;BME280;43621;51.798;21.588;2023-02-11T13:32:26;100276.19;;;3.42;69.75
57791;BME280;43621;51.798;21.588;2023-02-11T13:36:30;100253.33;;;3.46;70.08
57791;BME280;43621;51.798;21.588;2023-02-11T13:41:01;100264.09;;;3.46;69.94
57791;BME280;43621;51.798;21.588;2023-02-11T13:45:20;100263.46;;;3.42;70.09
57791;BME280;43621;51.798;21.588;2023-02-11T13:49:34;100263.10;;;3.39;70.13
57791;BME280;43621;51.798;21.588;2023-02-11T13:53:57;100259.48;;;3.42;70.23
57791;BME280;43621;51.798;21.588;2023-02-11T14:15:45;100246.16;;;3.48;70.51
57791;BME280;43621;51.798;21.588;2023-02-11T14:19:48;100239.23;;;3.55;70.78
57791;BME280;43621;51.798;21.588;2023-02-11T14:23:50;100242.95;;;3.59;70.79
57791;BME280;43621;51.798;21.588;2023-02-11T14:28:06;100243.34;;;3.59;70.66
57791;BME280;43621;51.798;21.588;2023-02-11T14:40:53;100263.59;;;3.55;70.83
57791;BME280;43621;51.798;21.588;2023-02-11T14:45:05;100263.27;;;3.60;70.86
57791;BME280;43621;51.798;21.588;2023-02-11T14:49:19;100265.81;;;3.64;70.95
57791;BME280;43621;51.798;21.588;2023-02-11T14:53:27;100266.09;;;3.62;71.12
57791;BME280;43621;51.798;21.588;2023-02-11T14:57:31;100266.34;;;3.58;71.11
57791;BME280;43621;51.798;21.588;2023-02-11T15:01:39;100270.99;;;3.58;71.29
57791;BME280;43621;51.798;21.588;2023-02-11T15:05:41;100276.00;;;3.61;71.21
57791;BME280;43621;51.798;21.588;2023-02-11T15:09:49;100283.37;;;3.62;71.25
57791;BME280;43621;51.798;21.588;2023-02-11T15:13:52;100292.17;;;3.62;71.43
57791;BME280;43621;51.798;21.588;2023-02-11T15:17:55;100287.46;;;3.60;71.53
57791;BME280;43621;51.798;21.588;2023-02-11T15:21:59;100286.95;;;3.60;71.49
57791;BME280;43621;51.798;21.588;2023-02-11T15:26:02;100293.68;;;3.66;71.64
57791;BME280;43621;51.798;21.588;2023-02-11T15:34:23;100295.46;;;3.76;71.61
57791;BME280;43621;51.798;21.588;2023-02-11T15:38:25;100299.53;;;3.75;71.55
57791;BME280;43621;51.798;21.588;2023-02-11T15:42:29;100302.68;;;3.71;71.77
57791;BME280;43621;51.798;21.588;2023-02-11T15:46:38;100303.92;;;3.70;71.79
57791;BME280;43621;51.798;21.588;2023-02-11T15:50:41;100311.52;;;3.76;71.71
57791;BME280;43621;51.798;21.588;2023-02-11T15:54:45;100312.02;;;3.83;71.84
57791;BME280;43621;51.798;21.588;2023-02-11T15:58:48;100317.45;;;3.87;71.77
57791;BME280;43621;51.798;21.588;2023-02-11T16:02:52;100322.39;;;3.88;71.86
57791;BME280;43621;51.798;21.588;2023-02-11T16:06:55;100327.96;;;3.88;71.95
57791;BME280;43621;51.798;21.588;2023-02-11T16:11:02;100325.61;;;3.90;71.92
57791;BME280;43621;51.798;21.588;2023-02-11T16:19:43;100331.41;;;3.97;71.90
57791;BME280;43621;51.798;21.588;2023-02-11T16:23:52;100338.77;;;3.98;72.03
57791;BME280;43621;51.798;21.588;2023-02-11T16:27:54;100338.38;;;3.96;72.09
57791;BME280;43621;51.798;21.588;2023-02-11T16:36:16;100337.94;;;3.92;72.12
57791;BME280;43621;51.798;21.588;2023-02-11T16:40:18;100345.61;;;3.96;72.23
57791;BME280;43621;51.798;21.588;2023-02-11T16:44:20;100356.23;;;4.01;72.23
57791;BME280;43621;51.798;21.588;2023-02-11T16:48:22;100357.25;;;4.04;72.26
57791;BME280;43621;51.798;21.588;2023-02-11T16:52:24;100359.11;;;4.08;72.44
57791;BME280;43621;51.798;21.588;2023-02-11T16:56:26;100357.80;;;4.06;72.54
57791;BME280;43621;51.798;21.588;2023-02-11T17:00:28;100356.69;;;4.05;72.59
57791;BME280;43621;51.798;21.588;2023-02-11T17:04:31;100359.80;;;4.02;72.55
57791;BME280;43621;51.798;21.588;2023-02-11T17:08:34;100365.81;;;4.02;72.37
57791;BME280;43621;51.798;21.588;2023-02-11T17:12:36;100371.25;;;4.07;72.46
57791;BME280;43621;51.798;21.588;2023-02-11T17:16:38;100374.11;;;4.14;72.43
57791;BME280;43621;51.798;21.588;2023-02-11T17:20:40;100379.52;;;4.22;72.45
57791;BME280;43621;51.798;21.588;2023-02-11T17:24:42;100385.11;;;4.30;72.48
57791;BME280;43621;51.798;21.588;2023-02-11T17:28:44;100392.05;;;4.32;72.42
57791;BME280;43621;51.798;21.588;2023-02-11T17:32:49;100393.73;;;4.30;72.58
57791;BME280;43621;51.798;21.588;2023-02-11T17:36:51;100401.13;;;4.28;72.60
57791;BME280;43621;51.798;21.588;2023-02-11T17:40:59;100405.86;;;4.24;72.54
57791;BME280;43621;51.798;21.588;2023-02-11T17:45:02;100409.10;;;4.25;72.52
57791;BME280;43621;51.798;21.588;2023-02-11T17:49:04;100415.80;;;4.31;72.43
57791;BME280;43621;51.798;21.588;2023-02-11T17:53:06;100414.05;;;4.37;72.48
57791;BME280;43621;51.798;21.588;2023-02-11T17:57:10;100418.74;;;4.43;72.54
57791;BME280;43621;51.798;21.588;2023-02-11T18:01:13;100421.14;;;4.49;72.68
57791;BME280;43621;51.798;21.588;2023-02-11T18:05:15;100427.57;;;4.51;72.87
57791;BME280;43621;51.798;21.588;2023-02-11T18:09:16;100434.19;;;4.50;72.77
57791;BME280;43621;51.798;21.588;2023-02-11T18:13:19;100432.75;;;4.48;72.79
57791;BME280;43621;51.798;21.588;2023-02-11T18:17:21;100435.80;;;4.49;72.67
57791;BME280;43621;51.798;21.588;2023-02-11T18:21:23;100439.01;;;4.54;72.55
57791;BME280;43621;51.798;21.588;2023-02-11T18:25:26;100441.55;;;4.60;72.52
57791;BME280;43621;51.798;21.588;2023-02-11T18:29:27;100445.63;;;4.67;72.64
57791;BME280;43621;51.798;21.588;2023-02-11T18:33:30;100447.70;;;4.70;72.64
57791;BME280;43621;51.798;21.588;2023-02-11T18:37:32;100445.88;;;4.69;72.74
57791;BME280;43621;51.798;21.588;2023-02-11T18:41:34;100453.21;;;4.65;72.75
57791;BME280;43621;51.798;21.588;2023-02-11T18:45:36;100457.13;;;4.60;72.66
57791;BME280;43621;51.798;21.588;2023-02-11T18:49:38;100466.16;;;4.59;72.68
57791;BME280;43621;51.798;21.588;2023-02-11T18:53:40;100472.64;;;4.64;72.68
57791;BME280;43621;51.798;21.588;2023-02-11T18:57:42;100474.80;;;4.68;72.84
57791;BME280;43621;51.798;21.588;2023-02-11T19:01:44;100481.19;;;4.74;72.99
57791;BME280;43621;51.798;21.588;2023-02-11T19:05:48;100483.59;;;4.77;73.02
57791;BME280;43621;51.798;21.588;2023-02-11T19:09:50;100485.78;;;4.78;73.08
57791;BME280;43621;51.798;21.588;2023-02-11T19:13:51;100489.41;;;4.75;73.09
57791;BME280;43621;51.798;21.588;2023-02-11T19:17:53;100501.24;;;4.74;73.07
57791;BME280;43621;51.798;21.588;2023-02-11T19:21:56;100507.87;;;4.79;73.18
57791;BME280;43621;51.798;21.588;2023-02-11T19:25:58;100517.27;;;4.84;73.25
57791;BME280;43621;51.798;21.588;2023-02-11T19:30:00;100516.65;;;4.89;73.32
57791;BME280;43621;51.798;21.588;2023-02-11T19:34:02;100517.23;;;4.88;73.34
57791;BME280;43621;51.798;21.588;2023-02-11T19:38:04;100524.33;;;4.84;73.45
57791;BME280;43621;51.798;21.588;2023-02-11T19:42:06;100538.16;;;4.85;73.51
57791;BME280;43621;51.798;21.588;2023-02-11T19:46:09;100543.41;;;4.90;73.56
57791;BME280;43621;51.798;21.588;2023-02-11T19:50:11;100552.68;;;4.94;73.47
57791;BME280;43621;51.798;21.588;2023-02-11T19:54:13;100559.40;;;4.97;73.45
57791;BME280;43621;51.798;21.588;2023-02-11T19:58:15;100565.54;;;4.99;73.58
57791;BME280;43621;51.798;21.588;2023-02-11T20:02:17;100569.70;;;4.95;73.59
57791;BME280;43621;51.798;21.588;2023-02-11T20:06:25;100570.82;;;4.91;73.62
57791;BME280;43621;51.798;21.588;2023-02-11T20:10:28;100573.96;;;4.91;73.54
57791;BME280;43621;51.798;21.588;2023-02-11T20:14:30;100579.26;;;4.95;73.59
57791;BME280;43621;51.798;21.588;2023-02-11T20:18:32;100576.60;;;4.98;73.56
57791;BME280;43621;51.798;21.588;2023-02-11T20:22:34;100583.55;;;5.04;73.51
57791;BME280;43621;51.798;21.588;2023-02-11T20:26:36;100598.03;;;5.08;73.52
57791;BME280;43621;51.798;21.588;2023-02-11T20:30:42;100598.63;;;5.06;73.63
57791;BME280;43621;51.798;21.588;2023-02-11T20:34:44;100609.26;;;5.02;73.64
57791;BME280;43621;51.798;21.588;2023-02-11T20:38:46;100619.48;;;5.02;73.71
57791;BME280;43621;51.798;21.588;2023-02-11T20:42:49;100622.77;;;5.05;73.58
57791;BME280;43621;51.798;21.588;2023-02-11T20:46:52;100630.70;;;5.08;73.59
57791;BME280;43621;51.798;21.588;2023-02-11T20:51:06;100638.11;;;5.12;73.52
57791;BME280;43621;51.798;21.588;2023-02-11T20:55:08;100639.25;;;5.13;73.59
57791;BME280;43621;51.798;21.588;2023-02-11T20:59:12;100642.44;;;5.09;73.60
57791;BME280;43621;51.798;21.588;2023-02-11T21:03:14;100643.66;;;5.03;73.62
57791;BME280;43621;51.798;21.588;2023-02-11T21:07:17;100661.10;;;4.97;73.58
57791;BME280;43621;51.798;21.588;2023-02-11T21:11:19;100668.23;;;4.97;73.55
57791;BME280;43621;51.798;21.588;2023-02-11T21:15:21;100671.15;;;5.00;73.51
57791;BME280;43621;51.798;21.588;2023-02-11T21:19:25;100678.52;;;5.04;73.50
57791;BME280;43621;51.798;21.588;2023-02-11T21:23:27;100686.42;;;5.05;73.58
57791;BME280;43621;51.798;21.588;2023-02-11T21:27:29;100692.65;;;5.03;73.69
57791;BME280;43621;51.798;21.588;2023-02-11T21:31:34;100693.05;;;4.96;73.63
57791;BME280;43621;51.798;21.588;2023-02-11T21:35:37;100704.27;;;4.90;73.54
57791;BME280;43621;51.798;21.588;2023-02-11T21:39:38;100712.43;;;4.89;73.61
57791;BME280;43621;51.798;21.588;2023-02-11T21:43:40;100722.26;;;4.90;73.57
57791;BME280;43621;51.798;21.588;2023-02-11T21:47:42;100731.23;;;4.90;73.51
57791;BME280;43621;51.798;21.588;2023-02-11T21:51:44;100735.79;;;4.90;73.57
57791;BME280;43621;51.798;21.588;2023-02-11T21:55:46;100741.41;;;4.85;73.66
57791;BME280;43621;51.798;21.588;2023-02-11T21:59:49;100751.09;;;4.78;73.68
57791;BME280;43621;51.798;21.588;2023-02-11T22:03:52;100758.55;;;4.72;73.69
57791;BME280;43621;51.798;21.588;2023-02-11T22:07:53;100767.31;;;4.70;73.71
57791;BME280;43621;51.798;21.588;2023-02-11T22:11:55;100773.92;;;4.72;73.65
57791;BME280;43621;51.798;21.588;2023-02-11T22:15:59;100786.70;;;4.76;73.65
57791;BME280;43621;51.798;21.588;2023-02-11T22:20:01;100795.96;;;4.80;73.81
57791;BME280;43621;51.798;21.588;2023-02-11T22:24:04;100801.13;;;4.77;73.81
57791;BME280;43621;51.798;21.588;2023-02-11T22:28:06;100811.64;;;4.72;73.80
57791;BME280;43621;51.798;21.588;2023-02-11T22:32:08;100811.45;;;4.63;73.72
57791;BME280;43621;51.798;21.588;2023-02-11T22:36:14;100813.05;;;4.55;73.55
57791;BME280;43621;51.798;21.588;2023-02-11T22:40:16;100820.59;;;4.53;73.43
57791;BME280;43621;51.798;21.588;2023-02-11T22:44:18;100830.91;;;4.48;73.25
57791;BME280;43621;51.798;21.588;2023-02-11T22:48:22;100845.43;;;4.38;73.24
57791;BME280;43621;51.798;21.588;2023-02-11T22:52:24;100853.08;;;4.28;73.19
57791;BME280;43621;51.798;21.588;2023-02-11T22:56:27;100865.07;;;4.23;73.13
57791;BME280;43621;51.798;21.588;2023-02-11T23:00:35;100880.55;;;4.24;72.97
57791;BME280;43621;51.798;21.588;2023-02-11T23:04:37;100887.04;;;4.29;72.99
57791;BME280;43621;51.798;21.588;2023-02-11T23:08:40;100900.06;;;4.31;73.03
57791;BME280;43621;51.798;21.588;2023-02-11T23:12:43;100915.18;;;4.30;73.07
57791;BME280;43621;51.798;21.588;2023-02-11T23:16:48;100915.48;;;4.27;73.14
57791;BME280;43621;51.798;21.588;2023-02-11T23:20:50;100927.95;;;4.20;72.94
57791;BME280;43621;51.798;21.588;2023-02-11T23:24:52;100935.94;;;4.15;72.73
57791;BME280;43621;51.798;21.588;2023-02-11T23:28:54;100948.29;;;4.10;72.37
57791;BME280;43621;51.798;21.588;2023-02-11T23:32:56;100962.29;;;4.07;72.23
57791;BME280;43621;51.798;21.588;2023-02-11T23:36:58;100970.38;;;3.97;72.15
57791;BME280;43621;51.798;21.588;2023-02-11T23:41:00;100973.96;;;3.79;71.98
57791;BME280;43621;51.798;21.588;2023-02-11T23:45:02;100979.29;;;3.61;71.96
57791;BME280;43621;51.798;21.588;2023-02-11T23:49:06;100984.11;;;3.47;71.84
57791;BME280;43621;51.798;21.588;2023-02-11T23:53:07;100993.73;;;3.36;71.76